Time;durP1;ratioP1;P1;durP2;ratioP2;P2;SDS_P1;SDS_P2;PMS_P1;PMS_P2;Temp;Humidity;BMP_temperature;BMP_pressure;BME280_temperature;BME280_humidity;BME280_pressure;Samples;Min_cycle;Max_cycle;Signal;HPM_P1;HPM_P2
2021/07/27 00:00:50;;;;;;;26.38;20.35;;;21.30;99.90;;;;;;5054204;28;20020;-71
2021/07/27 00:03:16;;;;;;;30.92;21.08;;;21.30;99.90;;;;;;5048036;28;20020;-71
2021/07/27 00:05:42;;;;;;;31.13;20.67;;;21.30;99.90;;;;;;5049683;28;20024;-72
2021/07/27 00:08:08;;;;;;;27.67;21.95;;;21.30;99.90;;;;;;5052732;28;20021;-71
2021/07/27 00:10:38;;;;;;;35.30;24.98;;;21.30;99.90;;;;;;5054224;28;20051;-69
2021/07/27 00:13:05;;;;;;;32.22;23.95;;;21.10;99.90;;;;;;5050368;28;20029;-67
2021/07/27 00:15:31;;;;;;;41.75;28.88;;;21.10;99.90;;;;;;5045678;28;20025;-67
2021/07/27 00:17:57;;;;;;;37.22;27.88;;;21.20;99.90;;;;;;5048016;28;20135;-67
2021/07/27 00:20:23;;;;;;;40.50;30.40;;;21.10;99.90;;;;;;5046706;28;20112;-67
2021/07/27 00:22:48;;;;;;;42.28;29.45;;;21.00;99.90;;;;;;5049161;28;20132;-71
2021/07/27 00:25:14;;;;;;;41.97;29.90;;;21.10;99.90;;;;;;5053830;28;20477;-71
2021/07/27 00:27:41;;;;;;;38.95;27.80;;;21.10;99.90;;;;;;5053843;28;20537;-72
2021/07/27 00:30:07;;;;;;;40.15;30.10;;;21.10;99.90;;;;;;5049116;28;20033;-71
2021/07/27 00:32:40;;;;;;;44.90;31.27;;;21.10;99.90;;;;;;5053678;28;20036;-71
2021/07/27 00:35:07;;;;;;;44.38;32.83;;;21.20;99.90;;;;;;5054127;28;20108;-72
2021/07/27 00:37:34;;;;;;;48.03;31.77;;;21.20;99.90;;;;;;5051270;28;20028;-71
2021/07/27 00:40:01;;;;;;;47.75;34.38;;;21.30;99.90;;;;;;5054245;28;20021;-68
2021/07/27 00:42:27;;;;;;;48.63;31.55;;;21.30;99.90;;;;;;5044450;28;20116;-71
2021/07/27 00:44:53;;;;;;;45.00;31.38;;;21.10;99.90;;;;;;5048540;28;20431;-69
2021/07/27 00:47:19;;;;;;;44.20;32.10;;;21.20;99.90;;;;;;5047913;28;20048;-70
2021/07/27 00:49:45;;;;;;;45.67;31.45;;;21.20;99.90;;;;;;5046477;28;20429;-71
2021/07/27 00:52:11;;;;;;;49.10;30.48;;;21.20;99.90;;;;;;5048818;28;20040;-71
2021/07/27 00:54:37;;;;;;;40.17;28.90;;;21.30;99.90;;;;;;5047887;28;20028;-71
2021/07/27 00:57:04;;;;;;;43.75;32.05;;;21.30;99.90;;;;;;5044892;28;20028;-68
2021/07/27 00:59:30;;;;;;;43.80;31.55;;;21.30;99.90;;;;;;5049726;28;20480;-69
2021/07/27 01:01:56;;;;;;;42.42;31.50;;;21.30;99.90;;;;;;5050395;28;20028;-71
2021/07/27 01:04:22;;;;;;;43.63;31.25;;;21.30;99.90;;;;;;5051261;28;20050;-72
2021/07/27 01:06:49;;;;;;;42.28;29.63;;;21.30;99.90;;;;;;5048575;28;20101;-71
2021/07/27 01:09:15;;;;;;;45.42;30.85;;;21.30;99.90;;;;;;5048216;28;20029;-69
2021/07/27 01:11:41;;;;;;;46.22;30.92;;;21.30;99.90;;;;;;5049275;28;20087;-69
2021/07/27 01:14:08;;;;;;;39.40;27.55;;;21.30;99.90;;;;;;5054578;28;20128;-68
2021/07/27 01:16:35;;;;;;;37.63;27.25;;;21.20;99.90;;;;;;5052159;28;20039;-67
2021/07/27 01:40:57;;;;;;;39.97;25.58;;;21.00;99.90;;;;;;5053615;28;20063;-68
2021/07/27 01:43:29;;;;;;;37.17;24.95;;;21.00;99.90;;;;;;5058332;28;20056;-67
2021/07/27 01:45:54;;;;;;;35.42;25.83;;;21.00;99.90;;;;;;5055289;28;20017;-67
2021/07/27 01:48:26;;;;;;;34.08;24.33;;;21.00;99.90;;;;;;5056067;28;20401;-69
2021/07/27 01:50:52;;;;;;;37.03;25.97;;;21.00;99.90;;;;;;5053158;28;20044;-69
2021/07/27 01:53:26;;;;;;;32.13;23.63;;;20.90;99.90;;;;;;5054304;28;20034;-68
2021/07/27 01:55:55;;;;;;;34.30;23.70;;;20.90;99.90;;;;;;5049006;28;20113;-69
2021/07/27 01:58:21;;;;;;;32.67;23.27;;;20.90;99.90;;;;;;5049413;28;20022;-68
2021/07/27 02:00:46;;;;;;;32.95;24.88;;;20.90;99.90;;;;;;5047821;28;20032;-68
2021/07/27 02:03:15;;;;;;;32.25;24.45;;;20.80;99.90;;;;;;5055089;28;20030;-68
2021/07/27 02:05:45;;;;;;;35.50;23.92;;;20.90;99.90;;;;;;5053297;28;20017;-68
2021/07/27 02:08:11;;;;;;;33.22;22.80;;;20.80;99.90;;;;;;5049113;28;20055;-68
2021/07/27 02:10:38;;;;;;;33.95;24.20;;;20.80;99.90;;;;;;5050313;28;20065;-68
2021/07/27 02:13:14;;;;;;;36.70;23.83;;;20.70;99.90;;;;;;5053503;28;20032;-69
2021/07/27 02:15:42;;;;;;;33.72;24.15;;;20.70;99.90;;;;;;5052012;28;20021;-68
2021/07/27 02:18:09;;;;;;;34.15;22.23;;;20.70;99.90;;;;;;5048341;28;20124;-68
2021/07/27 02:20:36;;;;;;;32.97;23.92;;;20.70;99.90;;;;;;5049457;28;20052;-68
2021/07/27 02:23:06;;;;;;;34.55;24.65;;;20.60;99.90;;;;;;5051496;28;20081;-69
2021/07/27 02:25:32;;;;;;;34.67;25.15;;;20.60;99.90;;;;;;5048039;28;20116;-68
2021/07/27 02:27:58;;;;;;;32.80;22.27;;;20.60;99.90;;;;;;5046254;28;20029;-68
2021/07/27 02:30:30;;;;;;;30.55;23.67;;;20.60;99.90;;;;;;5051951;28;20051;-68
2021/07/27 02:32:55;;;;;;;31.73;22.08;;;20.60;99.90;;;;;;5055726;28;20033;-69
2021/07/27 02:35:30;;;;;;;36.08;23.65;;;20.50;99.90;;;;;;5055017;28;20385;-69
2021/07/27 02:37:58;;;;;;;29.75;21.60;;;20.50;99.90;;;;;;5053656;28;20016;-68
2021/07/27 02:40:24;;;;;;;33.70;22.98;;;20.50;99.90;;;;;;5054827;28;20465;-68
2021/07/27 02:42:50;;;;;;;31.23;23.95;;;20.50;99.90;;;;;;5056233;28;20028;-68
2021/07/27 02:45:21;;;;;;;31.25;22.10;;;20.40;99.90;;;;;;5053730;28;20119;-68
2021/07/27 02:47:47;;;;;;;31.27;22.33;;;20.40;99.90;;;;;;5051197;28;20029;-68
2021/07/27 02:50:13;;;;;;;32.78;23.48;;;20.40;99.90;;;;;;5054176;28;20031;-69
2021/07/27 02:52:42;;;;;;;31.80;21.83;;;20.40;99.90;;;;;;5053859;28;20029;-68
2021/07/27 02:55:11;;;;;;;34.42;25.17;;;20.30;99.90;;;;;;5044722;28;20044;-68
2021/07/27 02:57:38;;;;;;;29.48;21.20;;;20.40;99.90;;;;;;5049665;28;20032;-68
2021/07/27 03:00:10;;;;;;;33.38;22.85;;;20.30;99.90;;;;;;5051207;28;20013;-68
2021/07/27 03:02:39;;;;;;;;;;;20.30;99.90;;;;;;5048811;28;20048;-66
2021/07/27 03:05:08;;;;;;;33.47;22.30;;;20.20;99.90;;;;;;5050744;28;19905;-68
2021/07/27 03:07:58;;;;;;;33.70;22.73;;;20.30;99.90;;;;;;5051517;28;20013;-68
2021/07/27 03:10:20;;;;;;;34.60;24.20;;;20.30;99.90;;;;;;5051155;28;20037;-69
2021/07/27 03:12:56;;;;;;;37.33;25.05;;;20.30;99.90;;;;;;5054629;28;20040;-68
2021/07/27 03:15:24;;;;;;;36.40;23.58;;;20.20;99.90;;;;;;5062702;28;20522;-68
2021/07/27 03:17:54;;;;;;;38.45;23.35;;;20.20;99.90;;;;;;5049875;28;20033;-69
2021/07/27 03:20:21;;;;;;;31.27;22.13;;;20.10;99.90;;;;;;5051576;28;20431;-68
2021/07/27 03:22:47;;;;;;;29.15;20.88;;;20.10;99.90;;;;;;5057909;28;20056;-69
2021/07/27 03:25:18;;;;;;;36.85;24.05;;;20.10;99.90;;;;;;5047868;28;20037;-69
2021/07/27 03:27:44;;;;;;;29.23;19.50;;;20.10;99.90;;;;;;5051184;28;20035;-68
2021/07/27 03:30:11;;;;;;;31.17;21.13;;;20.10;99.90;;;;;;5060972;28;20506;-68
2021/07/27 03:32:37;;;;;;;32.70;22.25;;;20.10;99.90;;;;;;5058537;28;20028;-69
2021/07/27 03:35:04;;;;;;;35.55;23.85;;;20.10;99.90;;;;;;5057269;28;20013;-69
2021/07/27 03:37:32;;;;;;;35.60;22.70;;;20.10;99.90;;;;;;5059801;28;20024;-69
2021/07/27 03:39:58;;;;;;;43.05;24.25;;;20.10;99.90;;;;;;5062289;28;20040;-68
2021/07/27 03:42:24;;;;;;;32.72;21.15;;;20.20;99.90;;;;;;5050714;28;20503;-68
2021/07/27 03:44:54;;;;;;;31.48;18.83;;;20.10;99.90;;;;;;5059987;28;20036;-68
2021/07/27 03:47:19;;;;;;;28.75;19.58;;;20.10;99.90;;;;;;5045644;28;20034;-68
2021/07/27 03:49:45;;;;;;;25.58;17.70;;;20.10;99.90;;;;;;5051599;28;20037;-68
2021/07/27 03:52:11;;;;;;;28.75;17.67;;;20.00;99.90;;;;;;5049134;28;20086;-68
2021/07/27 03:54:36;;;;;;;33.28;21.23;;;20.00;99.90;;;;;;5053034;28;20033;-68
2021/07/27 03:57:03;;;;;;;28.85;18.77;;;20.00;99.90;;;;;;5063379;28;20032;-68
2021/07/27 03:59:32;;;;;;;25.65;17.90;;;20.00;99.90;;;;;;5062471;28;20017;-68
2021/07/27 04:01:58;;;;;;;32.10;19.38;;;19.90;99.90;;;;;;5057821;28;20028;-68
2021/07/27 04:04:25;;;;;;;26.30;17.30;;;20.00;99.90;;;;;;5056260;28;20025;-68
2021/07/27 04:06:51;;;;;;;28.63;17.88;;;19.90;99.90;;;;;;5053278;28;20017;-68
2021/07/27 04:09:17;;;;;;;35.17;20.25;;;19.90;99.90;;;;;;5062458;28;20433;-68
2021/07/27 04:11:42;;;;;;;41.75;24.58;;;19.90;99.90;;;;;;5063776;28;20082;-68
2021/07/27 04:14:10;;;;;;;34.50;22.50;;;19.80;99.90;;;;;;5047241;28;20025;-68
2021/07/27 04:16:40;;;;;;;37.63;24.10;;;19.80;99.90;;;;;;5058077;28;20384;-68
2021/07/27 04:19:06;;;;;;;40.00;22.80;;;19.90;99.90;;;;;;5055992;28;20032;-69
2021/07/27 04:21:33;;;;;;;35.42;22.23;;;19.80;99.90;;;;;;5053407;28;20079;-68
2021/07/27 04:24:00;;;;;;;39.60;24.30;;;19.80;99.90;;;;;;5069781;28;20039;-68
2021/07/27 04:26:27;;;;;;;42.85;25.10;;;19.80;99.90;;;;;;5045939;28;20047;-69
2021/07/27 04:28:53;;;;;;;43.63;25.98;;;19.80;99.90;;;;;;5053667;28;20023;-68
2021/07/27 04:31:19;;;;;;;35.75;22.70;;;19.90;99.90;;;;;;5060517;28;20037;-68
2021/07/27 04:33:45;;;;;;;31.63;20.55;;;19.80;99.90;;;;;;5060614;28;20104;-69
2021/07/27 04:36:11;;;;;;;32.38;20.40;;;19.90;99.90;;;;;;5052695;28;20474;-68
2021/07/27 04:38:37;;;;;;;34.30;20.27;;;19.90;99.90;;;;;;5057648;28;20056;-68
2021/07/27 04:41:07;;;;;;;30.25;19.38;;;19.90;99.90;;;;;;5065849;28;20067;-68
2021/07/27 04:43:35;;;;;;;31.45;19.63;;;19.90;99.90;;;;;;5059823;28;20491;-69
2021/07/27 04:46:02;;;;;;;34.70;20.63;;;19.90;99.90;;;;;;5058582;28;20041;-69
2021/07/27 04:48:28;;;;;;;35.35;22.42;;;19.90;99.90;;;;;;5057965;28;20482;-68
2021/07/27 04:50:54;;;;;;;41.50;23.77;;;19.90;99.90;;;;;;5058774;28;20436;-69
2021/07/27 04:53:23;;;;;;;37.10;24.30;;;19.90;99.90;;;;;;5046622;28;20028;-68
2021/07/27 04:56:00;;;;;;;42.97;23.98;;;19.90;99.90;;;;;;5058819;28;20362;-68
2021/07/27 04:58:25;;;;;;;37.10;24.05;;;19.90;99.90;;;;;;5058350;28;20727;-68
2021/07/27 05:00:51;;;;;;;40.13;20.98;;;20.00;99.90;;;;;;5054798;28;20020;-68
2021/07/27 05:03:17;;;;;;;30.42;18.48;;;19.90;99.90;;;;;;5055863;28;20037;-69
2021/07/27 05:05:42;;;;;;;31.98;20.00;;;19.90;99.90;;;;;;5057440;28;20021;-69
2021/07/27 05:08:08;;;;;;;39.83;23.85;;;19.80;99.90;;;;;;5056718;28;20459;-69
2021/07/27 05:10:34;;;;;;;43.05;25.65;;;19.80;99.90;;;;;;5063935;28;20044;-69
2021/07/27 05:12:59;;;;;;;41.92;25.05;;;19.70;99.90;;;;;;5066985;28;20380;-69
2021/07/27 05:15:26;;;;;;;43.05;26.40;;;19.70;99.90;;;;;;5065935;28;20033;-68
2021/07/27 05:17:58;;;;;;;46.17;27.58;;;19.70;99.90;;;;;;5052212;28;20025;-68
2021/07/27 05:20:24;;;;;;;41.95;25.50;;;19.70;99.90;;;;;;5063027;28;20024;-68
2021/07/27 05:22:49;;;;;;;41.65;26.73;;;19.70;99.90;;;;;;5061790;28;20033;-68
2021/07/27 05:25:18;;;;;;;41.10;24.85;;;19.60;99.90;;;;;;5053163;28;20121;-68
2021/07/27 05:27:46;;;;;;;43.03;26.25;;;19.50;99.90;;;;;;5057398;28;20107;-68
2021/07/27 05:30:12;;;;;;;43.83;27.77;;;19.40;99.90;;;;;;5061472;28;20378;-68
2021/07/27 05:32:38;;;;;;;38.88;24.70;;;19.60;99.90;;;;;;5058095;28;20040;-69
2021/07/27 05:35:04;;;;;;;40.40;24.60;;;19.50;99.90;;;;;;5055916;28;20017;-68
2021/07/27 05:37:30;;;;;;;35.17;22.38;;;19.50;99.90;;;;;;5063974;28;20381;-68
2021/07/27 05:39:56;;;;;;;39.92;24.75;;;19.50;99.90;;;;;;5049057;28;20022;-68
2021/07/27 05:42:22;;;;;;;37.90;23.42;;;19.50;99.90;;;;;;5055798;28;20029;-68
2021/07/27 05:44:47;;;;;;;42.28;24.13;;;19.40;99.90;;;;;;5055601;28;20025;-68
2021/07/27 05:47:13;;;;;;;36.35;23.30;;;19.50;99.90;;;;;;5053747;28;20608;-68
2021/07/27 05:49:39;;;;;;;39.28;22.60;;;19.50;99.90;;;;;;5060360;28;20039;-68
2021/07/27 05:52:05;;;;;;;34.33;22.40;;;19.50;99.90;;;;;;5052337;28;20397;-68
2021/07/27 05:54:31;;;;;;;39.35;23.08;;;19.70;99.90;;;;;;5056385;28;20025;-68
2021/07/27 05:56:56;;;;;;;34.53;22.55;;;19.70;99.90;;;;;;5061478;28;20040;-68
2021/07/27 05:59:22;;;;;;;32.70;21.15;;;19.70;99.90;;;;;;5053992;28;20037;-68
2021/07/27 06:01:49;;;;;;;38.53;21.17;;;19.60;99.90;;;;;;5050517;28;20378;-68
2021/07/27 06:04:15;;;;;;;33.35;21.48;;;19.70;99.90;;;;;;5055817;28;20029;-69
2021/07/27 06:06:41;;;;;;;31.40;20.80;;;19.80;99.90;;;;;;5059402;28;20032;-68
2021/07/27 06:09:10;;;;;;;29.50;20.90;;;19.90;99.90;;;;;;5066432;28;20022;-68
2021/07/27 06:11:37;;;;;;;29.40;19.08;;;20.10;99.90;;;;;;5058289;28;20040;-68
2021/07/27 06:14:06;;;;;;;31.10;20.10;;;20.00;99.90;;;;;;5063656;28;20493;-69
2021/07/27 06:16:34;;;;;;;29.15;17.63;;;20.00;99.90;;;;;;5058616;28;20117;-68
2021/07/27 06:19:00;;;;;;;30.65;19.58;;;20.10;99.90;;;;;;5054075;28;20075;-69
2021/07/27 06:21:25;;;;;;;25.10;18.50;;;20.10;99.90;;;;;;5062866;28;20032;-69
2021/07/27 06:23:51;;;;;;;26.95;18.55;;;20.10;99.90;;;;;;5059231;28;20013;-68
2021/07/27 06:26:17;;;;;;;26.90;17.42;;;20.10;99.90;;;;;;5062307;28;20098;-69
2021/07/27 06:28:42;;;;;;;28.27;17.77;;;20.20;99.90;;;;;;5065499;28;20021;-69
2021/07/27 06:31:11;;;;;;;25.88;18.95;;;20.40;99.90;;;;;;5048741;28;20045;-69
2021/07/27 06:33:40;;;;;;;28.92;17.60;;;20.30;99.90;;;;;;5054012;28;20518;-69
2021/07/27 06:36:06;;;;;;;30.17;17.17;;;20.30;99.90;;;;;;5055390;28;20465;-69
2021/07/27 06:38:32;;;;;;;26.67;16.83;;;20.40;99.90;;;;;;5052583;28;20024;-69
2021/07/27 06:40:58;;;;;;;23.60;17.85;;;20.40;99.90;;;;;;5049449;28;20033;-69
2021/07/27 06:43:24;;;;;;;21.73;16.83;;;20.50;99.90;;;;;;5050909;28;20389;-72
2021/07/27 06:45:53;;;;;;;22.77;16.80;;;20.40;99.90;;;;;;5055697;28;20133;-69
2021/07/27 06:48:20;;;;;;;22.13;15.43;;;20.30;99.90;;;;;;5053984;28;20032;-71
2021/07/27 06:50:45;;;;;;;26.85;16.60;;;20.40;99.90;;;;;;5048940;28;20143;-69
2021/07/27 06:53:11;;;;;;;25.58;17.50;;;20.50;99.90;;;;;;5055237;28;20057;-69
2021/07/27 06:55:37;;;;;;;23.23;15.93;;;20.40;99.90;;;;;;5057669;28;20057;-69
2021/07/27 06:58:02;;;;;;;23.92;14.60;;;20.40;99.90;;;;;;5055307;28;20017;-69
2021/07/27 07:00:28;;;;;;;22.65;16.45;;;20.50;99.90;;;;;;5051508;28;20024;-69
2021/07/27 07:02:54;;;;;;;21.30;15.07;;;20.70;99.90;;;;;;5060102;28;20031;-69
2021/07/27 07:05:19;;;;;;;24.67;16.65;;;20.90;99.90;;;;;;5061812;28;20025;-69
2021/07/27 07:07:45;;;;;;;21.52;15.13;;;20.80;99.90;;;;;;5050260;28;20061;-69
2021/07/27 07:10:11;;;;;;;23.67;16.98;;;21.00;99.90;;;;;;5055338;28;20173;-69
2021/07/27 07:12:37;;;;;;;20.80;14.68;;;20.90;99.90;;;;;;5055683;28;20079;-70
2021/07/27 07:15:03;;;;;;;21.00;15.18;;;21.00;99.90;;;;;;5055620;28;20020;-69
2021/07/27 07:17:29;;;;;;;22.05;15.57;;;21.00;99.90;;;;;;5060433;28;20040;-68
2021/07/27 07:19:55;;;;;;;18.85;14.02;;;21.10;99.90;;;;;;5052940;28;20096;-69
2021/07/27 07:22:21;;;;;;;22.67;13.50;;;21.20;99.90;;;;;;5057953;28;20075;-69
2021/07/27 07:24:46;;;;;;;19.90;14.27;;;21.40;99.90;;;;;;5048368;28;20090;-69
2021/07/27 07:27:13;;;;;;;21.42;14.43;;;21.30;99.90;;;;;;5057145;28;20129;-69
2021/07/27 07:29:39;;;;;;;17.83;14.00;;;21.50;99.90;;;;;;5057219;28;20485;-69
2021/07/27 07:32:05;;;;;;;18.67;13.52;;;21.60;99.90;;;;;;5048426;28;20390;-68
2021/07/27 07:34:31;;;;;;;19.58;13.75;;;21.60;99.90;;;;;;5051806;28;20024;-69
2021/07/27 07:36:57;;;;;;;16.70;13.20;;;21.50;99.90;;;;;;5060152;28;20037;-69
2021/07/27 07:39:23;;;;;;;23.75;13.32;;;21.50;99.90;;;;;;5051453;28;20024;-69
2021/07/27 07:41:49;;;;;;;22.02;13.35;;;21.50;99.90;;;;;;5032714;28;20032;-68
2021/07/27 07:44:15;;;;;;;17.23;13.27;;;21.60;99.90;;;;;;5014427;28;20040;-70
2021/07/27 07:46:41;;;;;;;17.35;13.80;;;21.60;99.90;;;;;;5053344;28;20032;-69
2021/07/27 07:49:07;;;;;;;17.55;13.80;;;21.80;99.90;;;;;;5052994;28;20036;-70
2021/07/27 07:51:34;;;;;;;19.30;12.20;;;21.80;99.90;;;;;;5053438;28;20029;-73
2021/07/27 07:54:00;;;;;;;15.45;12.02;;;22.00;99.90;;;;;;5050317;28;20342;-73
2021/07/27 07:56:26;;;;;;;21.58;13.32;;;22.00;99.90;;;;;;5051661;28;20029;-70
2021/07/27 07:58:52;;;;;;;17.88;14.05;;;22.00;99.90;;;;;;5043064;28;22212;-69
2021/07/27 08:01:18;;;;;;;19.10;14.38;;;21.90;99.90;;;;;;5051512;28;20037;-69
2021/07/27 08:03:44;;;;;;;16.63;12.90;;;21.80;99.90;;;;;;5053589;28;20705;-69
2021/07/27 08:06:09;;;;;;;16.27;12.85;;;21.90;99.90;;;;;;5051578;28;20123;-69
2021/07/27 08:08:39;;;;;;;20.00;13.60;;;22.00;99.90;;;;;;5042383;28;20023;-69
2021/07/27 08:11:12;;;;;;;21.85;12.75;;;22.20;99.90;;;;;;5045935;28;20037;-69
2021/07/27 08:13:38;;;;;;;17.60;12.48;;;22.40;99.90;;;;;;5043833;28;20021;-70
2021/07/27 08:16:10;;;;;;;17.42;12.60;;;22.60;99.90;;;;;;5050667;28;20100;-69
2021/07/27 08:18:37;;;;;;;17.33;13.60;;;22.60;99.90;;;;;;5051007;28;20028;-69
2021/07/27 08:21:03;;;;;;;17.67;13.63;;;22.70;99.90;;;;;;5051034;28;20040;-69
2021/07/27 08:23:29;;;;;;;17.95;13.63;;;22.70;99.90;;;;;;5054093;28;20021;-69
2021/07/27 08:25:54;;;;;;;18.10;12.25;;;22.70;99.90;;;;;;5051273;28;20029;-69
2021/07/27 08:28:20;;;;;;;17.25;12.10;;;22.80;99.90;;;;;;5052713;28;20511;-69
2021/07/27 08:30:46;;;;;;;20.35;13.18;;;22.80;99.90;;;;;;5044239;28;20034;-70
2021/07/27 08:33:11;;;;;;;18.30;13.68;;;22.90;99.90;;;;;;5045579;28;20044;-70
2021/07/27 08:35:37;;;;;;;16.90;12.52;;;22.60;99.90;;;;;;5053709;28;20120;-70
2021/07/27 08:38:02;;;;;;;15.50;12.93;;;22.70;99.90;;;;;;5051234;28;20021;-69
2021/07/27 08:40:34;;;;;;;18.33;13.15;;;22.60;99.90;;;;;;5062553;28;20388;-69
2021/07/27 08:43:01;;;;;;;16.63;13.35;;;22.70;99.90;;;;;;5049236;28;20021;-69
2021/07/27 08:45:27;;;;;;;17.00;13.15;;;22.80;99.90;;;;;;5057170;28;20037;-69
2021/07/27 08:47:53;;;;;;;16.98;12.98;;;22.80;99.90;;;;;;5058118;28;20099;-69
2021/07/27 08:50:18;;;;;;;17.83;14.32;;;22.80;99.90;;;;;;5058590;28;20025;-69
2021/07/27 08:52:44;;;;;;;17.92;14.63;;;22.90;99.90;;;;;;5060819;28;20033;-69
2021/07/27 08:55:11;;;;;;;17.35;14.18;;;22.90;99.90;;;;;;5050456;28;20029;-69
2021/07/27 08:57:57;;;;;;;18.60;15.15;;;23.00;99.90;;;;;;5052636;28;20040;-69
2021/07/27 09:00:27;;;;;;;16.13;13.93;;;23.10;99.90;;;;;;5058492;28;20036;-69
2021/07/27 09:02:52;;;;;;;15.77;13.43;;;23.20;99.90;;;;;;5059658;28;20419;-69
2021/07/27 09:05:19;;;;;;;15.20;13.50;;;23.30;99.90;;;;;;5049853;28;20484;-69
2021/07/27 09:07:44;;;;;;;15.32;13.82;;;23.40;99.90;;;;;;5052486;28;20029;-69
2021/07/27 09:10:17;;;;;;;17.27;14.30;;;23.40;99.90;;;;;;5055614;28;20469;-69
2021/07/27 09:13:04;;;;;;;20.67;15.27;;;23.20;99.90;;;;;;5049032;28;20024;-69
2021/07/27 09:15:32;;;;;;;17.83;13.30;;;23.20;99.90;;;;;;5058609;28;20028;-69
2021/07/27 09:18:04;;;;;;;15.80;14.05;;;23.30;99.90;;;;;;5051062;28;20083;-73
2021/07/27 09:20:40;;;;;;;15.55;13.88;;;23.40;99.90;;;;;;5051412;28;20496;-68
2021/07/27 09:23:12;;;;;;;18.20;13.10;;;23.40;99.90;;;;;;5055906;28;20377;-72
2021/07/27 09:25:52;;;;;;;14.70;13.20;;;23.40;99.90;;;;;;5053022;28;20029;-72
2021/07/27 09:28:19;;;;;;;18.75;12.63;;;23.30;99.90;;;;;;5048116;28;20393;-70
2021/07/27 09:30:45;;;;;;;16.65;13.15;;;23.40;99.90;;;;;;5051560;28;20096;-69
2021/07/27 09:33:13;;;;;;;17.63;12.55;;;23.60;99.90;;;;;;5054483;28;20103;-69
2021/07/27 09:35:40;;;;;;;17.92;12.93;;;23.60;99.90;;;;;;5045589;28;20029;-69
2021/07/27 09:38:16;;;;;;;13.80;11.98;;;23.60;99.90;;;;;;5049114;28;20048;-69
2021/07/27 09:40:52;;;;;;;12.85;11.15;;;23.60;99.90;;;;;;5053417;28;20035;-69
2021/07/27 09:43:23;;;;;;;15.95;11.05;;;23.50;99.90;;;;;;5045614;28;20025;-69
2021/07/27 09:45:51;;;;;;;13.70;11.13;;;23.60;99.90;;;;;;5061162;28;20021;-73
2021/07/27 09:48:18;;;;;;;13.35;10.82;;;23.60;99.90;;;;;;5053768;28;20078;-69
2021/07/27 09:50:46;;;;;;;19.42;11.15;;;23.60;99.90;;;;;;5059117;28;20028;-69
2021/07/27 09:53:12;;;;;;;12.45;10.40;;;23.60;99.90;;;;;;5056473;28;20083;-69
2021/07/27 09:55:38;;;;;;;13.02;11.52;;;23.60;99.90;;;;;;5051185;28;20044;-69
2021/07/27 09:58:04;;;;;;;13.77;11.10;;;23.70;99.90;;;;;;5055679;28;20039;-69
2021/07/27 10:00:32;;;;;;;16.02;10.57;;;23.60;99.90;;;;;;5062922;28;20104;-69
2021/07/27 10:03:01;;;;;;;12.48;9.70;;;23.70;99.90;;;;;;5043681;28;20027;-70
2021/07/27 10:05:27;;;;;;;13.57;10.40;;;23.70;99.90;;;;;;5058448;28;20032;-70
2021/07/27 10:07:54;;;;;;;14.90;10.02;;;23.80;99.90;;;;;;5053880;28;20436;-70
2021/07/27 10:10:35;;;;;;;13.93;9.65;;;23.90;99.90;;;;;;5056912;28;20024;-70
2021/07/27 10:13:05;;;;;;;12.50;9.70;;;23.90;99.90;;;;;;5052928;28;20024;-70
2021/07/27 10:15:41;;;;;;;16.80;9.57;;;24.00;99.90;;;;;;5058991;28;20075;-70
2021/07/27 10:18:07;;;;;;;11.90;9.48;;;23.90;99.90;;;;;;5056132;28;20057;-70
2021/07/27 10:20:32;;;;;;;11.90;10.13;;;23.90;99.90;;;;;;5050453;28;20057;-69
2021/07/27 10:22:58;;;;;;;12.10;9.20;;;24.00;99.90;;;;;;5052161;28;20075;-70
2021/07/27 10:25:27;;;;;;;15.13;10.73;;;24.10;99.90;;;;;;5054612;28;20060;-69
2021/07/27 10:27:53;;;;;;;10.63;9.52;;;24.10;99.90;;;;;;5050063;28;20472;-69
2021/07/27 10:30:32;;;;;;;14.32;9.77;;;24.00;99.90;;;;;;5056574;28;20036;-70
2021/07/27 10:32:57;;;;;;;11.23;8.98;;;24.40;99.90;;;;;;5055095;28;20140;-69
2021/07/27 10:35:24;;;;;;;19.02;9.20;;;24.80;99.90;;;;;;5056473;28;20440;-69
2021/07/27 10:37:49;;;;;;;15.85;10.32;;;25.20;99.90;;;;;;5054382;28;20031;-69
2021/07/27 10:40:29;;;;;;;13.40;10.25;;;25.30;99.90;;;;;;5054489;28;20432;-69
2021/07/27 10:42:55;;;;;;;13.30;10.60;;;25.40;99.90;;;;;;5053144;28;20035;-70
2021/07/27 10:45:22;;;;;;;14.07;10.35;;;25.40;99.90;;;;;;5061526;28;20029;-69
2021/07/27 10:47:51;;;;;;;11.38;9.73;;;25.50;99.90;;;;;;5057219;28;20031;-70
2021/07/27 10:50:21;;;;;;;10.68;9.32;;;25.40;99.90;;;;;;5049495;28;20037;-70
2021/07/27 10:52:49;;;;;;;17.50;11.18;;;25.40;99.90;;;;;;5054843;28;20119;-70
2021/07/27 10:55:15;;;;;;;11.98;10.70;;;25.30;99.90;;;;;;5054796;28;20425;-70
2021/07/27 10:57:50;;;;;;;15.02;11.32;;;25.10;99.90;;;;;;5052932;28;20041;-70
2021/07/27 11:00:16;;;;;;;11.80;9.88;;;25.20;99.90;;;;;;5054523;28;20028;-70
2021/07/27 11:02:42;;;;;;;13.10;10.52;;;25.20;99.90;;;;;;5053478;28;20016;-70
2021/07/27 11:05:08;;;;;;;15.55;10.70;;;25.30;99.90;;;;;;5050944;28;20488;-70
2021/07/27 11:07:35;;;;;;;15.05;11.48;;;25.30;99.90;;;;;;5051945;28;20075;-70
2021/07/27 11:10:01;;;;;;;12.15;10.95;;;25.30;99.90;;;;;;5052340;28;20508;-70
2021/07/27 11:12:34;;;;;;;14.57;11.23;;;25.30;99.90;;;;;;5050593;28;20525;-70
2021/07/27 11:15:07;;;;;;;12.07;9.60;;;25.60;99.90;;;;;;5046663;28;20028;-70
2021/07/27 11:17:33;;;;;;;18.80;10.02;;;25.70;99.90;;;;;;5052652;28;20116;-70
2021/07/27 11:19:59;;;;;;;15.13;10.82;;;25.80;99.90;;;;;;5037872;28;20644;-70
2021/07/27 11:22:26;;;;;;;10.60;9.48;;;25.70;99.90;;;;;;5050340;28;20051;-70
2021/07/27 11:24:53;;;;;;;11.73;9.98;;;25.70;99.90;;;;;;5054021;28;20578;-70
2021/07/27 11:27:23;;;;;;;13.02;10.27;;;25.80;99.90;;;;;;5050706;28;20027;-70
2021/07/27 11:29:56;;;;;;;12.98;10.13;;;25.80;99.90;;;;;;5054252;28;20025;-70
2021/07/27 11:32:25;;;;;;;14.63;9.70;;;25.90;99.90;;;;;;5051956;28;20044;-70
2021/07/27 11:34:56;;;;;;;12.13;9.40;;;25.80;99.90;;;;;;5052189;28;20021;-70
2021/07/27 11:37:26;;;;;;;15.63;10.73;;;25.70;99.90;;;;;;5053139;28;20021;-70
2021/07/27 11:39:52;;;;;;;12.77;9.70;;;25.60;99.90;;;;;;5048212;28;20504;-70
2021/07/27 11:42:28;;;;;;;13.45;10.48;;;25.40;99.90;;;;;;5050647;28;20025;-70
2021/07/27 11:44:54;;;;;;;12.88;10.32;;;25.50;99.90;;;;;;5052188;28;20029;-73
2021/07/27 11:47:19;;;;;;;12.85;10.77;;;25.50;99.90;;;;;;5049188;28;20073;-70
2021/07/27 11:49:57;;;;;;;13.40;10.98;;;25.40;99.90;;;;;;5050472;28;20024;-70
2021/07/27 11:52:29;;;;;;;12.30;10.82;;;25.40;99.90;;;;;;5050328;28;20125;-70
2021/07/27 11:55:06;;;;;;;14.25;10.55;;;25.30;99.90;;;;;;5050324;28;20028;-70
2021/07/27 11:57:34;;;;;;;17.85;11.38;;;25.20;99.90;;;;;;5048360;28;20028;-71
2021/07/27 12:00:11;;;;;;;12.23;10.25;;;25.10;99.90;;;;;;5057294;28;20536;-71
2021/07/27 12:02:37;;;;;;;11.63;10.18;;;25.20;99.90;;;;;;5056834;28;20104;-70
2021/07/27 12:05:04;;;;;;;11.50;9.73;;;25.10;99.90;;;;;;5047695;28;20080;-70
2021/07/27 12:07:30;;;;;;;12.85;10.45;;;25.20;99.90;;;;;;5055775;28;20019;-70
2021/07/27 12:09:56;;;;;;;14.10;10.13;;;25.10;99.90;;;;;;5049254;28;20068;-70
2021/07/27 12:12:21;;;;;;;11.45;10.05;;;25.20;99.90;;;;;;5056031;28;20033;-71
2021/07/27 12:14:47;;;;;;;14.45;11.55;;;25.30;99.90;;;;;;5056721;28;20618;-70
2021/07/27 12:17:13;;;;;;;12.32;9.77;;;25.30;99.90;;;;;;5049931;28;20108;-70
2021/07/27 12:19:38;;;;;;;16.65;10.98;;;25.40;99.90;;;;;;5055962;28;20025;-70
2021/07/27 12:22:04;;;;;;;13.02;10.48;;;25.50;99.90;;;;;;5044395;28;20017;-70
2021/07/27 12:24:29;;;;;;;11.68;10.43;;;25.50;99.90;;;;;;5051037;28;20040;-70
2021/07/27 12:26:55;;;;;;;12.98;10.68;;;25.50;99.90;;;;;;5050878;28;20025;-70
2021/07/27 12:29:20;;;;;;;12.95;10.82;;;25.40;99.90;;;;;;5054318;28;20470;-69
2021/07/27 12:31:46;;;;;;;14.63;10.90;;;25.30;99.90;;;;;;5052945;28;20076;-70
2021/07/27 12:34:12;;;;;;;12.95;10.02;;;25.30;99.90;;;;;;5044731;28;20021;-70
2021/07/27 12:36:38;;;;;;;15.48;9.95;;;25.40;99.90;;;;;;5045345;28;20029;-70
2021/07/27 12:39:03;;;;;;;12.68;9.68;;;25.40;99.90;;;;;;5046147;28;20033;-69
2021/07/27 12:41:29;;;;;;;11.60;9.45;;;25.60;99.90;;;;;;5046863;28;20496;-70
2021/07/27 12:43:55;;;;;;;14.25;10.05;;;25.80;99.90;;;;;;5051080;28;20029;-70
2021/07/27 12:46:24;;;;;;;13.60;10.10;;;25.80;99.90;;;;;;5055565;28;20028;-70
2021/07/27 12:48:50;;;;;;;12.73;9.88;;;25.70;99.90;;;;;;5046917;28;20036;-70
2021/07/27 12:51:17;;;;;;;11.13;9.60;;;25.80;99.90;;;;;;5051898;28;20033;-70